Time;durP1;ratioP1;P1;durP2;ratioP2;P2;SDS_P1;SDS_P2;PMS_P1;PMS_P2;Temp;Humidity;BMP_temperature;BMP_pressure;BME280_temperature;BME280_humidity;BME280_pressure;Samples;Min_cycle;Max_cycle;Signal;HPM_P1;HPM_P2
2022/12/01 00:02:42;;;;;;;407.80;46.40;;;;;;;-145.68;100.00;63218.00;10429953;28;20433;-76
2022/12/01 00:07:43;;;;;;;220.93;39.97;;;;;;;-145.68;100.00;63218.00;10449307;28;20189;-75
2022/12/01 00:12:43;;;;;;;332.03;39.73;;;;;;;-145.68;100.00;63218.00;10455296;28;20667;-76
2022/12/01 00:17:44;;;;;;;288.20;40.43;;;;;;;-145.68;100.00;63218.00;10455511;28;20285;-76
2022/12/01 00:22:45;;;;;;;256.03;35.60;;;;;;;-145.68;100.00;63218.00;10436773;28;20232;-75
2022/12/01 00:27:48;;;;;;;295.17;36.93;;;;;;;-145.68;100.00;63218.00;10455210;28;20191;-75
2022/12/01 00:32:49;;;;;;;292.37;40.93;;;;;;;-145.68;100.00;63218.00;10434473;28;20314;-75
2022/12/01 00:37:49;;;;;;;428.33;41.63;;;;;;;-145.68;100.00;63218.00;10436169;28;20288;-76
2022/12/01 00:42:51;;;;;;;106.23;33.37;;;;;;;-145.68;100.00;63218.00;10453667;28;20192;-75
2022/12/01 00:47:51;;;;;;;166.73;32.10;;;;;;;-145.68;100.00;63218.00;10453395;28;20550;-75
2022/12/01 00:52:52;;;;;;;143.67;31.63;;;;;;;-145.68;100.00;63218.00;10418956;28;20187;-76
2022/12/01 00:57:52;;;;;;;147.23;31.97;;;;;;;-145.68;100.00;63218.00;10453462;28;20207;-75
2022/12/01 01:02:52;;;;;;;157.17;34.23;;;;;;;-145.68;100.00;63218.00;10452015;28;20645;-75
2022/12/01 01:07:53;;;;;;;119.40;32.20;;;;;;;-145.68;100.00;63218.00;10452676;28;20578;-75
2022/12/01 01:12:53;;;;;;;86.83;31.60;;;;;;;-145.68;100.00;63218.00;10451921;28;20188;-75
2022/12/01 01:17:53;;;;;;;76.57;31.83;;;;;;;-145.68;100.00;63218.00;10430035;28;20216;-76
2022/12/01 01:22:54;;;;;;;83.13;31.40;;;;;;;-145.68;100.00;63218.00;10450965;28;20240;-74
2022/12/01 01:27:54;;;;;;;177.87;33.13;;;;;;;-145.68;100.00;63218.00;10452089;28;20685;-76
2022/12/01 01:32:55;;;;;;;111.87;27.40;;;;;;;-145.68;100.00;63218.00;10431342;28;20229;-76
2022/12/01 01:37:55;;;;;;;154.87;31.03;;;;;;;-145.68;100.00;63218.00;10451348;28;20215;-76
2022/12/01 01:42:55;;;;;;;83.80;28.37;;;;;;;-145.68;100.00;63218.00;10451219;28;20664;-76
2022/12/01 01:47:58;;;;;;;63.57;26.83;;;;;;;-145.68;100.00;63218.00;10450924;28;20192;-75
2022/12/01 01:53:02;;;;;;;94.67;26.97;;;;;;;-145.68;100.00;63218.00;10432835;28;20206;-76
2022/12/01 01:58:06;;;;;;;170.23;26.33;;;;;;;-145.68;100.00;63218.00;10432879;28;20230;-76
2022/12/01 02:03:09;;;;;;;68.40;26.40;;;;;;;-145.68;100.00;63218.00;10430537;28;20196;-75
2022/12/01 02:08:11;;;;;;;111.37;28.10;;;;;;;-145.68;100.00;63218.00;10432567;28;20188;-76
2022/12/01 02:13:29;;;;;;;146.90;28.53;;;;;;;-145.68;100.00;63218.00;10431863;28;20209;-75
2022/12/01 02:18:36;;;;;;;65.80;25.97;;;;;;;-145.68;100.00;63218.00;10432163;28;20353;-76
2022/12/01 02:23:51;;;;;;;57.97;24.40;;;;;;;-145.68;100.00;63218.00;10432029;28;20243;-75
2022/12/01 02:28:51;;;;;;;58.70;26.07;;;;;;;-145.68;100.00;63218.00;10449965;28;20242;-75
2022/12/01 02:33:55;;;;;;;63.40;25.35;;;;;;;-145.68;100.00;63218.00;10448578;28;20713;-75
2022/12/01 02:39:30;;;;;;;79.13;27.97;;;;;;;-145.68;100.00;63218.00;10431850;28;20754;-76
2022/12/01 02:44:49;;;;;;;65.20;27.43;;;;;;;-145.68;100.00;63218.00;10378656;28;20291;-76
2022/12/01 02:49:53;;;;;;;65.90;29.13;;;;;;;-145.68;100.00;63218.00;10431981;28;20212;-76
2022/12/01 02:54:55;;;;;;;63.10;25.90;;;;;;;-145.68;100.00;63218.00;10448862;28;20279;-76
2022/12/01 02:59:55;;;;;;;64.67;28.50;;;;;;;-145.68;100.00;63218.00;10431597;28;20226;-76
2022/12/01 03:05:18;;;;;;;51.70;25.57;;;;;;;-145.68;100.00;63218.00;10430971;28;20192;-76
2022/12/01 03:10:24;;;;;;;56.87;24.50;;;;;;;-145.68;100.00;63218.00;10431568;28;20184;-76
2022/12/01 03:15:29;;;;;;;75.47;26.00;;;;;;;-145.68;100.00;63218.00;10447983;28;20762;-76
2022/12/01 03:20:46;;;;;;;63.60;24.70;;;;;;;-145.68;100.00;63218.00;10431131;28;20220;-76
2022/12/01 03:25:48;;;;;;;63.83;24.37;;;;;;;-145.68;100.00;63218.00;10430224;28;20231;-75
2022/12/01 03:30:54;;;;;;;78.90;25.60;;;;;;;-145.68;100.00;63218.00;10429956;28;20596;-76
2022/12/01 03:36:00;;;;;;;56.97;24.20;;;;;;;-145.68;100.00;63218.00;10430981;28;20669;-76
2022/12/01 03:41:05;;;;;;;57.60;23.20;;;;;;;-145.68;100.00;63218.00;10448272;28;20231;-76
2022/12/01 03:46:12;;;;;;;58.93;25.10;;;;;;;-145.68;100.00;63218.00;10436889;28;20664;-76
2022/12/01 03:51:36;;;;;;;114.37;25.57;;;;;;;-145.68;100.00;63218.00;10438458;28;20606;-75
2022/12/01 03:56:51;;;;;;;78.63;26.43;;;;;;;-145.68;100.00;63218.00;10437593;28;20675;-76
2022/12/01 04:01:52;;;;;;;74.87;24.97;;;;;;;-145.68;100.00;63218.00;10436356;28;20664;-75
2022/12/01 04:06:52;;;;;;;92.10;24.57;;;;;;;-145.68;100.00;63218.00;10449508;28;20195;-75
2022/12/01 04:17:11;;;;;;;84.60;25.10;;;;;;;-145.68;100.00;63218.00;10447897;28;20634;-76
2022/12/01 04:22:12;;;;;;;154.50;26.90;;;;;;;-145.68;100.00;63218.00;10448019;28;20182;-75
2022/12/01 04:27:13;;;;;;;118.10;26.30;;;;;;;-145.68;100.00;63218.00;10443722;28;20227;-75
2022/12/01 04:32:13;;;;;;;120.00;25.17;;;;;;;-145.68;100.00;63218.00;10446679;28;20202;-75
2022/12/01 04:37:14;;;;;;;81.77;24.03;;;;;;;-145.68;100.00;63218.00;10445158;28;20250;-76
2022/12/01 04:42:14;;;;;;;99.63;24.60;;;;;;;-145.68;100.00;63218.00;10444756;28;20203;-75
2022/12/01 04:47:14;;;;;;;116.10;25.30;;;;;;;-145.68;100.00;63218.00;10446383;28;20192;-76
2022/12/01 04:52:15;;;;;;;123.60;25.83;;;;;;;-145.68;100.00;63218.00;10445108;28;20187;-75
2022/12/01 04:57:15;;;;;;;70.13;23.23;;;;;;;-145.68;100.00;63218.00;10445907;28;20297;-76
2022/12/01 05:02:16;;;;;;;72.33;23.77;;;;;;;-145.68;100.00;63218.00;10448529;28;20431;-75
2022/12/01 05:07:17;;;;;;;89.27;26.07;;;;;;;-145.68;100.00;63218.00;10453134;28;20195;-75
2022/12/01 05:12:17;;;;;;;65.50;23.40;;;;;;;-145.68;100.00;63218.00;10452524;28;20552;-75
2022/12/01 05:17:18;;;;;;;80.27;25.43;;;;;;;-145.68;100.00;63218.00;10452864;28;20220;-75
2022/12/01 05:22:18;;;;;;;64.30;24.37;;;;;;;-145.68;100.00;63218.00;10452738;28;20274;-75
2022/12/01 05:27:18;;;;;;;65.87;25.73;;;;;;;-145.68;100.00;63218.00;10451913;28;20232;-75
2022/12/01 05:32:19;;;;;;;65.10;23.50;;;;;;;-145.68;100.00;63218.00;10452340;28;20195;-76
2022/12/01 05:37:19;;;;;;;57.03;23.03;;;;;;;-145.68;100.00;63218.00;10451672;28;20247;-75
2022/12/01 05:42:20;;;;;;;57.47;24.17;;;;;;;-145.68;100.00;63218.00;10452038;28;20238;-75
2022/12/01 05:47:20;;;;;;;61.80;23.57;;;;;;;-145.68;100.00;63218.00;10451910;28;20184;-76
2022/12/01 05:52:20;;;;;;;61.23;26.33;;;;;;;-145.68;100.00;63218.00;10450530;28;20191;-75
2022/12/01 05:57:21;;;;;;;62.77;22.87;;;;;;;-145.68;100.00;63218.00;10451567;28;20602;-75
2022/12/01 06:02:21;;;;;;;51.53;21.80;;;;;;;-145.68;100.00;63218.00;10450482;28;20196;-75
2022/12/01 06:07:24;;;;;;;56.17;22.60;;;;;;;-145.68;100.00;63218.00;10449844;28;20184;-75
2022/12/01 06:12:24;;;;;;;54.23;20.57;;;;;;;-145.68;100.00;63218.00;10433073;28;20318;-76
2022/12/01 06:17:25;;;;;;;51.10;21.27;;;;;;;-145.68;100.00;63218.00;10450661;28;20334;-75
2022/12/01 06:22:25;;;;;;;54.47;20.80;;;;;;;-145.68;100.00;63218.00;10431915;28;20245;-76
2022/12/01 06:27:25;;;;;;;58.47;21.23;;;;;;;-145.68;100.00;63218.00;10450971;28;20186;-76
2022/12/01 06:32:26;;;;;;;61.27;22.10;;;;;;;-145.68;100.00;63218.00;10432193;28;20202;-76
2022/12/01 06:37:26;;;;;;;62.70;22.10;;;;;;;-145.68;100.00;63218.00;10449576;28;20696;-75
2022/12/01 06:42:31;;;;;;;55.67;21.20;;;;;;;-145.68;100.00;63218.00;10449531;28;20203;-75
2022/12/01 06:47:31;;;;;;;62.93;21.60;;;;;;;-145.68;100.00;63218.00;10449821;28;20674;-75
2022/12/01 06:52:31;;;;;;;58.73;20.60;;;;;;;-145.68;100.00;63218.00;10448972;28;20200;-75
2022/12/01 06:57:32;;;;;;;81.13;20.70;;;;;;;-145.68;100.00;63218.00;10449704;28;20583;-74
2022/12/01 07:02:32;;;;;;;69.90;19.97;;;;;;;-145.68;100.00;63218.00;10448516;28;20192;-75
2022/12/01 07:07:37;;;;;;;46.57;18.07;;;;;;;-145.68;100.00;63218.00;10448880;28;20310;-75
2022/12/01 07:12:38;;;;;;;60.97;20.07;;;;;;;-145.68;100.00;63218.00;10431162;28;20183;-75
2022/12/01 07:17:38;;;;;;;52.47;19.83;;;;;;;-145.68;100.00;63218.00;10448030;28;20217;-76
2022/12/01 07:22:39;;;;;;;80.80;20.23;;;;;;;-145.68;100.00;63218.00;10425002;28;20197;-75
2022/12/01 07:27:39;;;;;;;52.90;20.00;;;;;;;-145.68;100.00;63218.00;10375339;28;20196;-75
2022/12/01 07:32:39;;;;;;;62.07;20.80;;;;;;;-145.68;100.00;63218.00;10373374;28;20228;-75
2022/12/01 07:37:40;;;;;;;46.97;17.43;;;;;;;-145.68;100.00;63218.00;10374385;28;20217;-75
2022/12/01 07:42:41;;;;;;;59.27;18.87;;;;;;;-145.68;100.00;63218.00;10357027;28;20181;-75
2022/12/01 07:47:41;;;;;;;66.50;21.03;;;;;;;-145.68;100.00;63218.00;10357084;28;20177;-75
2022/12/01 07:52:41;;;;;;;83.93;21.43;;;;;;;-145.68;100.00;63218.00;10411286;28;20196;-75
2022/12/01 07:57:42;;;;;;;89.07;20.60;;;;;;;-145.68;100.00;63218.00;10412853;28;20691;-75
2022/12/01 08:02:42;;;;;;;95.33;22.07;;;;;;;-145.68;100.00;63218.00;10404956;28;20511;-75
2022/12/01 08:07:42;;;;;;;62.77;20.63;;;;;;;-145.68;100.00;63218.00;10409567;28;20220;-75
2022/12/01 08:12:45;;;;;;;58.23;19.70;;;;;;;-145.68;100.00;63218.00;10411605;28;20231;-76
2022/12/01 08:17:45;;;;;;;100.07;21.03;;;;;;;-145.68;100.00;63218.00;10412479;28;20278;-74
2022/12/01 08:22:46;;;;;;;74.17;19.90;;;;;;;-145.68;100.00;63218.00;10414264;28;20806;-75
2022/12/01 08:27:47;;;;;;;128.03;25.13;;;;;;;-145.68;100.00;63218.00;10454563;28;20215;-75
2022/12/01 08:32:47;;;;;;;129.23;26.07;;;;;;;-145.68;100.00;63218.00;10454117;28;20694;-75
2022/12/01 08:37:51;;;;;;;53.00;20.53;;;;;;;-145.68;100.00;63218.00;10452423;28;20219;-74
2022/12/01 08:42:52;;;;;;;83.60;20.60;;;;;;;-145.68;100.00;63218.00;10452729;28;20287;-76
2022/12/01 08:47:53;;;;;;;88.40;21.60;;;;;;;-145.68;100.00;63218.00;10453636;28;20194;-76
2022/12/01 08:52:54;;;;;;;73.57;22.43;;;;;;;-145.68;100.00;63218.00;10453684;28;20184;-75
2022/12/01 08:57:54;;;;;;;69.77;21.30;;;;;;;-145.68;100.00;63218.00;10453092;28;20710;-75
2022/12/01 09:02:54;;;;;;;68.43;21.40;;;;;;;-145.68;100.00;63218.00;10442697;28;20273;-75
2022/12/01 09:08:30;;;;;;;75.00;22.23;;;;;;;-145.68;100.00;63218.00;10451948;28;20188;-75
2022/12/01 09:13:15;;;;;;;67.77;22.40;;;;;;;-145.68;100.00;63218.00;10438744;28;20196;-75
2022/12/01 09:18:15;;;;;;;68.60;20.47;;;;;;;-145.68;100.00;63218.00;10440009;28;20220;-75
2022/12/01 09:23:16;;;;;;;62.50;21.00;;;;;;;-145.68;100.00;63218.00;10432575;28;20231;-75
2022/12/01 09:28:17;;;;;;;72.90;21.30;;;;;;;-145.68;100.00;63218.00;10450034;28;20192;-75
2022/12/01 09:33:17;;;;;;;69.67;22.60;;;;;;;-145.68;100.00;63218.00;10428266;28;20192;-75
2022/12/01 09:38:18;;;;;;;74.33;24.57;;;;;;;-145.68;100.00;63218.00;10445873;28;20661;-74
2022/12/01 09:43:21;;;;;;;75.77;23.30;;;;;;;-145.68;100.00;63218.00;10445773;28;20269;-75
2022/12/01 09:48:41;;;;;;;84.83;22.20;;;;;;;-145.68;100.00;63218.00;10431902;28;20549;-76
2022/12/01 09:53:42;;;;;;;101.57;25.03;;;;;;;-145.68;100.00;63218.00;10450581;28;20667;-75
2022/12/01 09:58:43;;;;;;;115.93;27.33;;;;;;;-145.68;100.00;63218.00;10408036;28;20795;-76
2022/12/01 10:04:29;;;;;;;97.83;25.23;;;;;;;-145.68;100.00;63218.00;10407589;28;20200;-74
2022/12/01 10:09:45;;;;;;;105.43;26.93;;;;;;;-145.68;100.00;63218.00;10448741;28;20202;-76
2022/12/01 10:14:47;;;;;;;98.83;27.77;;;;;;;-145.68;100.00;63218.00;10421180;28;20226;-75
2022/12/01 10:19:55;;;;;;;96.87;26.53;;;;;;;-145.68;100.00;63218.00;10448164;28;20241;-75
2022/12/01 10:25:15;;;;;;;93.87;28.50;;;;;;;-145.68;100.00;63218.00;10406786;28;20235;-75
2022/12/01 10:30:17;;;;;;;107.07;26.13;;;;;;;-145.68;100.00;63218.00;10407436;28;20321;-75
2022/12/01 10:35:23;;;;;;;104.37;28.03;;;;;;;-145.68;100.00;63218.00;10386826;28;20699;-75
2022/12/01 10:40:25;;;;;;;89.00;27.13;;;;;;;-145.68;100.00;63218.00;10406268;28;20315;-75
2022/12/01 10:45:30;;;;;;;89.30;26.90;;;;;;;-145.68;100.00;63218.00;10386947;28;20230;-75
2022/12/01 10:50:30;;;;;;;88.57;27.27;;;;;;;-145.68;100.00;63218.00;10404145;28;20250;-75
2022/12/01 10:55:34;;;;;;;84.67;25.47;;;;;;;-145.68;100.00;63218.00;10404859;28;20270;-75
2022/12/01 11:00:37;;;;;;;82.63;26.40;;;;;;;-145.68;100.00;63218.00;10386829;28;20225;-75
2022/12/01 11:05:39;;;;;;;94.00;29.50;;;;;;;-145.68;100.00;63218.00;10397145;28;20204;-75
2022/12/01 11:10:47;;;;;;;104.30;34.17;;;;;;;-145.68;100.00;63218.00;10378217;28;20239;-75
2022/12/01 11:15:53;;;;;;;135.93;48.00;;;;;;;-145.68;100.00;63218.00;10404490;28;20200;-75
2022/12/01 11:21:06;;;;;;;87.10;28.20;;;;;;;-145.68;100.00;63218.00;10403035;28;20708;-75
2022/12/01 11:26:16;;;;;;;90.80;28.93;;;;;;;-145.68;100.00;63218.00;10402860;28;20242;-75
2022/12/01 11:31:17;;;;;;;82.53;28.97;;;;;;;-145.68;100.00;63218.00;10387314;28;20647;-75
2022/12/01 11:36:20;;;;;;;92.07;29.67;;;;;;;-145.68;100.00;63218.00;10372087;28;20216;-75
2022/12/01 11:41:27;;;;;;;92.97;32.17;;;;;;;-145.68;100.00;63218.00;10357800;28;20231;-75
2022/12/01 11:46:34;;;;;;;85.80;30.63;;;;;;;-145.68;100.00;63218.00;10360529;28;20181;-75
2022/12/01 11:51:37;;;;;;;91.57;30.37;;;;;;;-145.68;100.00;63218.00;10370356;28;20188;-75
2022/12/01 11:56:38;;;;;;;94.07;30.70;;;;;;;-145.68;100.00;63218.00;10385493;28;20185;-75
2022/12/01 12:01:57;;;;;;;101.60;33.07;;;;;;;-145.68;100.00;63218.00;10386399;28;20228;-75
2022/12/01 12:07:19;;;;;;;93.97;31.20;;;;;;;-145.68;100.00;63218.00;10410752;28;20207;-75
2022/12/01 12:12:44;;;;;;;100.07;32.23;;;;;;;-145.68;100.00;63218.00;10409626;28;20227;-74
2022/12/01 12:18:07;;;;;;;92.63;32.53;;;;;;;-145.68;100.00;63218.00;10392877;28;20680;-75
2022/12/01 12:23:39;;;;;;;90.60;29.77;;;;;;;-145.68;100.00;63218.00;10390584;28;20544;-75
2022/12/01 12:28:54;;;;;;;86.33;30.07;;;;;;;-145.68;100.00;63218.00;10392472;28;20665;-74
2022/12/01 12:34:12;;;;;;;88.43;32.50;;;;;;;-145.68;100.00;63218.00;10392197;28;20279;-75
2022/12/01 12:39:33;;;;;;;85.87;30.47;;;;;;;-145.68;100.00;63218.00;10391472;28;20267;-75
2022/12/01 12:44:45;;;;;;;91.53;32.60;;;;;;;-145.68;100.00;63218.00;10408661;28;20210;-75
2022/12/01 12:49:52;;;;;;;96.77;33.07;;;;;;;-145.68;100.00;63218.00;10389637;28;20194;-73
2022/12/01 12:55:31;;;;;;;89.30;33.03;;;;;;;-145.68;100.00;63218.00;10408848;28;20659;-75
2022/12/01 13:00:32;;;;;;;103.13;35.60;;;;;;;-145.68;100.00;63218.00;10448866;28;20219;-75
2022/12/01 13:05:37;;;;;;;103.13;34.40;;;;;;;-145.68;100.00;63218.00;10449725;28;20652;-75
2022/12/01 13:10:41;;;;;;;94.43;33.30;;;;;;;-145.68;100.00;63218.00;10431735;28;20179;-75
2022/12/01 13:15:42;;;;;;;102.17;32.70;;;;;;;-145.68;100.00;63218.00;10449730;28;20215;-76
2022/12/01 13:20:43;;;;;;;97.30;32.93;;;;;;;-145.68;100.00;63218.00;10421587;28;20219;-75
2022/12/01 13:25:56;;;;;;;100.57;32.23;;;;;;;-145.68;100.00;63218.00;10431221;28;20243;-75
2022/12/01 13:31:05;;;;;;;85.90;30.67;;;;;;;-145.68;100.00;63218.00;10431956;28;20313;-75
2022/12/01 13:36:10;;;;;;;92.03;35.47;;;;;;;-145.68;100.00;63218.00;10421041;28;20219;-75
2022/12/01 13:41:16;;;;;;;99.60;34.13;;;;;;;-145.68;100.00;63218.00;10445875;28;20234;-75
2022/12/01 13:46:48;;;;;;;98.10;34.60;;;;;;;-145.68;100.00;63218.00;10446494;28;20222;-75
2022/12/01 13:52:15;;;;;;;98.60;32.73;;;;;;;-145.68;100.00;63218.00;10445842;28;20188;-75
2022/12/01 13:57:25;;;;;;;98.53;32.97;;;;;;;-145.68;100.00;63218.00;10405685;28;20208;-74
2022/12/01 14:02:35;;;;;;;90.10;32.03;;;;;;;-145.68;100.00;63218.00;10418817;28;20199;-75
2022/12/01 14:07:38;;;;;;;98.87;31.33;;;;;;;-145.68;100.00;63218.00;10407353;28;20334;-76
2022/12/01 14:12:49;;;;;;;81.77;30.80;;;;;;;-145.68;100.00;63218.00;10420969;28;20665;-75
2022/12/01 14:18:14;;;;;;;93.30;31.30;;;;;;;-145.68;100.00;63218.00;10402052;28;20207;-75
2022/12/01 14:23:35;;;;;;;92.17;33.90;;;;;;;-145.68;100.00;63218.00;10399631;28;20228;-74
2022/12/01 14:28:53;;;;;;;93.37;32.97;;;;;;;-145.68;100.00;63218.00;10388688;28;20249;-75
2022/12/01 14:34:02;;;;;;;105.50;34.33;;;;;;;-145.68;100.00;63218.00;10436146;28;20222;-75
2022/12/01 14:39:09;;;;;;;94.10;34.50;;;;;;;-145.68;100.00;63218.00;10392596;28;20240;-74
2022/12/01 14:44:30;;;;;;;107.57;36.10;;;;;;;-145.68;100.00;63218.00;10397186;28;20199;-74
2022/12/01 14:49:33;;;;;;;99.07;33.10;;;;;;;-145.68;100.00;63218.00;10410277;28;20186;-74
2022/12/01 14:54:42;;;;;;;99.23;33.57;;;;;;;-145.68;100.00;63218.00;10402096;28;20276;-74
2022/12/01 14:59:42;;;;;;;112.63;34.83;;;;;;;-145.68;100.00;63218.00;10394115;28;20224;-74
2022/12/01 15:05:05;;;;;;;98.30;32.97;;;;;;;-145.68;100.00;63218.00;10394616;28;20195;-74
2022/12/01 15:10:17;;;;;;;105.70;34.70;;;;;;;-145.68;100.00;63218.00;10403889;28;20193;-74
2022/12/01 15:15:20;;;;;;;109.87;36.27;;;;;;;-145.68;100.00;63218.00;10441435;28;20211;-74
2022/12/01 15:20:32;;;;;;;125.37;39.17;;;;;;;-145.68;100.00;63218.00;10446552;28;20216;-74
2022/12/01 15:25:35;;;;;;;158.03;53.63;;;;;;;-145.68;100.00;63218.00;10428047;28;20240;-75
2022/12/01 15:30:36;;;;;;;150.00;56.30;;;;;;;-145.68;100.00;63218.00;10445965;28;20192;-75
2022/12/01 15:35:36;;;;;;;160.10;72.97;;;;;;;-145.68;100.00;63218.00;10428614;28;20556;-75
2022/12/01 15:40:37;;;;;;;143.33;51.03;;;;;;;-145.68;100.00;63218.00;10450197;28;20231;-75
2022/12/01 15:45:57;;;;;;;246.17;85.10;;;;;;;-145.68;100.00;63218.00;10435623;28;20222;-75
2022/12/01 15:51:02;;;;;;;198.73;65.70;;;;;;;-145.68;100.00;63218.00;10413594;28;20246;-74
2022/12/01 15:56:05;;;;;;;308.53;115.63;;;;;;;-145.68;100.00;63218.00;10416879;28;20716;-75
2022/12/01 16:01:12;;;;;;;179.33;56.43;;;;;;;-145.68;100.00;63218.00;10427018;28;20227;-74
2022/12/01 16:06:12;;;;;;;173.23;58.50;;;;;;;-145.68;100.00;63218.00;10434681;28;20191;-74
2022/12/01 16:11:15;;;;;;;178.97;55.83;;;;;;;-145.68;100.00;63218.00;10452853;28;20212;-75
2022/12/01 16:16:44;;;;;;;241.03;89.13;;;;;;;-145.68;100.00;63218.00;10451263;28;20203;-75
2022/12/01 16:21:44;;;;;;;147.13;50.07;;;;;;;-145.68;100.00;63218.00;10434408;28;20311;-74
2022/12/01 16:26:54;;;;;;;166.33;55.37;;;;;;;-145.68;100.00;63218.00;10452238;28;20232;-75
2022/12/01 16:31:59;;;;;;;124.97;39.27;;;;;;;-145.68;100.00;63218.00;10414075;28;20454;-74
2022/12/01 16:37:00;;;;;;;135.53;41.30;;;;;;;-145.68;100.00;63218.00;10409062;28;20220;-74
2022/12/01 16:42:00;;;;;;;181.97;64.50;;;;;;;-145.68;100.00;63218.00;10430501;28;20591;-75
2022/12/01 16:47:01;;;;;;;119.70;40.43;;;;;;;-145.68;100.00;63218.00;10431668;28;20210;-74
2022/12/01 16:52:02;;;;;;;133.27;41.73;;;;;;;-145.68;100.00;63218.00;10431054;28;20931;-74
2022/12/01 16:57:02;;;;;;;132.37;39.67;;;;;;;-145.68;100.00;63218.00;10450612;28;20192;-74
2022/12/01 17:02:03;;;;;;;127.30;40.33;;;;;;;-145.68;100.00;63218.00;10451834;28;20282;-74
2022/12/01 17:07:03;;;;;;;131.57;39.70;;;;;;;-145.68;100.00;63218.00;10451936;28;20192;-75
2022/12/01 17:12:04;;;;;;;131.17;39.33;;;;;;;-145.68;100.00;63218.00;10450601;28;20199;-74
2022/12/01 17:17:04;;;;;;;151.07;42.03;;;;;;;-145.68;100.00;63218.00;10453592;28;20191;-74
2022/12/01 17:22:04;;;;;;;128.33;38.27;;;;;;;-145.68;100.00;63218.00;10446237;28;20211;-75
2022/12/01 17:27:05;;;;;;;133.00;38.73;;;;;;;-145.68;100.00;63218.00;10432394;28;20243;-74
2022/12/01 17:32:07;;;;;;;124.50;37.23;;;;;;;-145.68;100.00;63218.00;10410565;28;20525;-74
2022/12/01 17:37:08;;;;;;;117.23;36.63;;;;;;;-145.68;100.00;63218.00;10432486;28;20215;-75
2022/12/01 17:42:08;;;;;;;124.83;36.60;;;;;;;-145.68;100.00;63218.00;10451632;28;20219;-75
2022/12/01 17:47:09;;;;;;;114.53;35.30;;;;;;;-145.68;100.00;63218.00;10451929;28;20187;-72
2022/12/01 17:52:09;;;;;;;124.73;38.27;;;;;;;-145.68;100.00;63218.00;10451427;28;20191;-74
2022/12/01 17:57:10;;;;;;;98.27;34.37;;;;;;;-145.68;100.00;63218.00;10450737;28;20209;-74
2022/12/01 18:02:11;;;;;;;100.77;34.27;;;;;;;-145.68;100.00;63218.00;10450050;28;20224;-74
2022/12/01 18:07:12;;;;;;;96.53;34.20;;;;;;;-145.68;100.00;63218.00;10450907;28;20211;-74
2022/12/01 18:12:13;;;;;;;95.77;34.53;;;;;;;-145.68;100.00;63218.00;10450443;28;20192;-75
2022/12/01 18:17:14;;;;;;;98.03;34.87;;;;;;;-145.68;100.00;63218.00;10450694;28;20196;-75
2022/12/01 18:22:14;;;;;;;115.20;36.67;;;;;;;-145.68;100.00;63218.00;10432643;28;20211;-75
2022/12/01 18:27:15;;;;;;;101.27;34.53;;;;;;;-145.68;100.00;63218.00;10449770;28;20239;-74
2022/12/01 18:32:15;;;;;;;93.87;33.63;;;;;;;-145.68;100.00;63218.00;10449967;28;20595;-75
2022/12/01 18:37:16;;;;;;;93.83;32.27;;;;;;;-145.68;100.00;63218.00;10450215;28;20212;-74
2022/12/01 18:42:16;;;;;;;100.07;34.47;;;;;;;-145.68;100.00;63218.00;10448741;28;20229;-74
2022/12/01 18:47:17;;;;;;;96.37;34.57;;;;;;;-145.68;100.00;63218.00;10450201;28;20218;-75
2022/12/01 18:52:17;;;;;;;92.57;32.03;;;;;;;-145.68;100.00;63218.00;10449019;28;20540;-75
2022/12/01 18:57:18;;;;;;;97.67;34.87;;;;;;;-145.68;100.00;63218.00;10449165;28;20195;-74
2022/12/01 19:02:18;;;;;;;102.40;34.07;;;;;;;-145.68;100.00;63218.00;10448761;28;20216;-75
2022/12/01 19:07:20;;;;;;;98.40;34.60;;;;;;;-145.68;100.00;63218.00;10431388;28;20701;-74
2022/12/01 19:12:20;;;;;;;106.53;35.40;;;;;;;-145.68;100.00;63218.00;10431146;28;20274;-72
2022/12/01 19:17:21;;;;;;;96.17;34.10;;;;;;;-145.68;100.00;63218.00;10438900;28;20666;-72
2022/12/01 19:22:21;;;;;;;102.27;35.47;;;;;;;-145.68;100.00;63218.00;10438185;28;20219;-72
2022/12/01 19:27:21;;;;;;;96.07;34.23;;;;;;;-145.68;100.00;63218.00;10437439;28;20578;-75
2022/12/01 19:32:23;;;;;;;95.60;34.07;;;;;;;-145.68;100.00;63218.00;10436878;28;20187;-74
2022/12/01 19:37:24;;;;;;;93.17;32.80;;;;;;;-145.68;100.00;63218.00;10420335;28;20232;-75
2022/12/01 19:42:24;;;;;;;83.50;31.03;;;;;;;-145.68;100.00;63218.00;10437409;28;20552;-74
2022/12/01 19:47:25;;;;;;;89.13;33.03;;;;;;;-145.68;100.00;63218.00;10455292;28;20680;-74
2022/12/01 19:52:27;;;;;;;91.27;33.47;;;;;;;-145.68;100.00;63218.00;10454927;28;20192;-74
2022/12/01 19:57:27;;;;;;;85.83;31.90;;;;;;;-145.68;100.00;63218.00;10435144;28;20196;-75
2022/12/01 20:02:28;;;;;;;82.87;31.63;;;;;;;-145.68;100.00;63218.00;10454219;28;20219;-74
2022/12/01 20:07:29;;;;;;;82.93;31.70;;;;;;;-145.68;100.00;63218.00;10454471;28;20596;-74
2022/12/01 20:12:29;;;;;;;88.33;31.50;;;;;;;-145.68;100.00;63218.00;10453994;28;20187;-74
2022/12/01 20:17:29;;;;;;;92.83;33.43;;;;;;;-145.68;100.00;63218.00;10454254;28;20192;-75
2022/12/01 20:22:33;;;;;;;87.40;32.17;;;;;;;-145.68;100.00;63218.00;10452681;28;20227;-75
2022/12/01 20:27:35;;;;;;;89.47;34.43;;;;;;;-145.68;100.00;63218.00;10452290;28;20672;-75
2022/12/01 20:32:35;;;;;;;95.70;34.20;;;;;;;-145.68;100.00;63218.00;10453511;28;20192;-74
2022/12/01 20:37:36;;;;;;;95.77;35.43;;;;;;;-145.68;100.00;63218.00;10434996;28;20695;-75
2022/12/01 20:42:38;;;;;;;107.77;36.60;;;;;;;-145.68;100.00;63218.00;10453101;28;20265;-73
2022/12/01 20:47:39;;;;;;;94.03;34.70;;;;;;;-145.68;100.00;63218.00;10453303;28;20199;-73
2022/12/01 20:52:40;;;;;;;102.17;34.73;;;;;;;-145.68;100.00;63218.00;10451642;28;20191;-73
2022/12/01 20:57:41;;;;;;;89.97;32.13;;;;;;;-145.68;100.00;63218.00;10452919;28;20640;-73
2022/12/01 21:02:42;;;;;;;110.97;39.30;;;;;;;-145.68;100.00;63218.00;10451821;28;20196;-75
2022/12/01 21:07:43;;;;;;;108.00;36.13;;;;;;;-145.68;100.00;63218.00;10452336;28;20219;-74
2022/12/01 21:18:09;;;;;;;100.40;33.97;;;;;;;-145.68;100.00;63218.00;10437369;28;20601;-75
2022/12/01 21:23:15;;;;;;;103.30;37.63;;;;;;;-145.68;100.00;63218.00;10432808;28;20263;-74
2022/12/01 21:28:19;;;;;;;106.80;36.03;;;;;;;-145.68;100.00;63218.00;10451641;28;20192;-75
2022/12/01 21:33:32;;;;;;;113.03;36.87;;;;;;;-145.68;100.00;63218.00;10451187;28;20644;-74
2022/12/01 21:38:32;;;;;;;110.23;37.50;;;;;;;-145.68;100.00;63218.00;10450849;28;20231;-75
2022/12/01 21:43:34;;;;;;;116.83;36.70;;;;;;;-145.68;100.00;63218.00;10442411;28;20651;-74
2022/12/01 21:48:35;;;;;;;107.73;35.50;;;;;;;-145.68;100.00;63218.00;10450380;28;20728;-74
2022/12/01 21:53:37;;;;;;;125.87;37.20;;;;;;;-145.68;100.00;63218.00;10449933;28;20184;-74
2022/12/01 21:58:38;;;;;;;112.40;36.87;;;;;;;-145.68;100.00;63218.00;10450009;28;20256;-74
2022/12/01 22:03:44;;;;;;;119.43;37.63;;;;;;;-145.68;100.00;63218.00;10450152;28;20210;-74
2022/12/01 22:08:48;;;;;;;107.63;34.23;;;;;;;-145.68;100.00;63218.00;10450876;28;20567;-74
2022/12/01 22:13:49;;;;;;;97.20;34.00;;;;;;;-145.68;100.00;63218.00;10445616;28;20238;-74
2022/12/01 22:18:55;;;;;;;107.00;36.17;;;;;;;-145.68;100.00;63218.00;10432443;28;20219;-74
2022/12/01 22:24:10;;;;;;;90.37;34.80;;;;;;;-145.68;100.00;63218.00;10449539;28;20728;-74